createdAt,value
2017-10-07T00:00:38.984Z,11.89
2017-10-07T00:06:25.803Z,11.48
2017-10-07T00:12:09.462Z,11.37
2017-10-07T00:17:52.387Z,11.35
2017-10-07T00:23:37.259Z,11.66
2017-10-07T00:29:19.739Z,11.31
2017-10-07T00:35:06.434Z,11.71
2017-10-07T00:40:50.763Z,11.66
2017-10-07T00:46:38.332Z,11.09
2017-10-07T00:52:22.247Z,11.42
2017-10-07T00:58:06.871Z,11.56
2017-10-07T01:03:53.846Z,11.34
2017-10-07T01:09:36.106Z,11.20
2017-10-07T01:15:25.317Z,11.13
2017-10-07T01:21:05.790Z,11.12
2017-10-07T01:26:51.206Z,10.91
2017-10-07T01:32:40.376Z,11.03
2017-10-07T01:38:24.417Z,10.97
2017-10-07T01:44:11.210Z,10.88
2017-10-07T01:49:54.591Z,10.99
2017-10-07T01:55:37.243Z,11.35
2017-10-07T02:01:26.904Z,11.30
2017-10-07T02:07:07.558Z,11.13
2017-10-07T02:12:54.458Z,11.25
2017-10-07T02:18:37.531Z,11.07
2017-10-07T02:24:19.467Z,11.07
2017-10-07T02:30:06.588Z,11.31
2017-10-07T02:35:51.446Z,11.32
2017-10-07T02:41:36.164Z,11.10
2017-10-07T02:47:22.747Z,11.09
2017-10-07T02:53:09.538Z,11.12
2017-10-07T02:58:52.376Z,11.10
2017-10-07T03:04:37.186Z,11.11
2017-10-07T03:10:20.205Z,11.00
2017-10-07T03:16:06.776Z,11.02
2017-10-07T03:21:50.159Z,10.98
2017-10-07T03:27:36.825Z,11.04
2017-10-07T03:33:25.777Z,11.10
2017-10-07T03:39:08.666Z,11.07
2017-10-07T03:44:51.343Z,11.17
2017-10-07T03:50:38.032Z,11.23
2017-10-07T03:56:22.787Z,11.05
2017-10-07T04:02:12.317Z,11.24
2017-10-07T04:07:55.891Z,11.22
2017-10-07T04:13:38.655Z,11.10
2017-10-07T04:19:21.712Z,11.33
2017-10-07T04:25:08.535Z,10.99
2017-10-07T04:30:53.479Z,10.91
2017-10-07T04:36:36.466Z,11.10
2017-10-07T04:42:21.270Z,11.02
2017-10-07T04:48:06.379Z,10.88
2017-10-07T04:53:55.670Z,11.05
2017-10-07T04:59:38.957Z,11.13
2017-10-07T05:05:23.554Z,11.05
2017-10-07T05:11:07.318Z,11.01
2017-10-07T05:16:56.365Z,11.11
2017-10-07T05:22:39.209Z,11.18
2017-10-07T05:28:22.082Z,10.94
2017-10-07T05:34:08.827Z,11.03
2017-10-07T05:39:53.446Z,11.19
2017-10-07T05:45:38.253Z,10.99
2017-10-07T05:51:23.295Z,11.15
2017-10-07T05:57:07.287Z,11.13
2017-10-07T06:02:56.085Z,10.98
2017-10-07T06:08:39.378Z,11.13
2017-10-07T06:14:22.142Z,11.15
2017-10-07T06:20:06.792Z,11.22
2017-10-07T06:25:55.590Z,11.38
2017-10-07T06:31:39.202Z,11.32
2017-10-07T06:37:22.752Z,11.55
2017-10-07T06:43:07.713Z,11.24
2017-10-07T06:48:56.769Z,11.26
2017-10-07T06:54:39.419Z,11.38
2017-10-07T07:00:22.435Z,11.59
2017-10-07T07:06:10.933Z,11.40
2017-10-07T07:11:51.427Z,11.61
2017-10-07T07:17:36.172Z,11.53
2017-10-07T07:23:25.349Z,11.51
2017-10-07T07:29:08.614Z,11.39
2017-10-07T07:34:51.508Z,11.43
2017-10-07T07:40:40.645Z,11.61
2017-10-07T07:46:23.190Z,11.67
2017-10-07T07:52:10.286Z,11.57
2017-10-07T07:57:56.947Z,11.64
2017-10-07T08:03:40.031Z,11.53
2017-10-07T08:09:23.496Z,11.46
2017-10-07T08:15:06.486Z,11.43
2017-10-07T08:20:55.989Z,11.56
2017-10-07T08:26:36.086Z,11.73
2017-10-07T08:32:23.336Z,11.67
2017-10-07T08:38:08.007Z,11.53
2017-10-07T08:43:57.345Z,11.85
2017-10-07T08:49:40.639Z,11.77
2017-10-07T08:55:23.929Z,11.39
2017-10-07T09:01:06.469Z,11.57
2017-10-07T09:06:55.845Z,11.60
2017-10-07T09:12:39.375Z,11.88
2017-10-07T09:18:23.125Z,12.15
2017-10-07T09:24:12.284Z,12.20
2017-10-07T09:29:54.943Z,12.60
2017-10-07T09:35:39.455Z,12.46
2017-10-07T09:41:22.340Z,12.47
2017-10-07T09:47:11.549Z,12.21
2017-10-07T09:52:54.548Z,12.27
2017-10-07T09:58:39.139Z,12.43
2017-10-07T10:04:21.651Z,12.36
2017-10-07T10:10:10.776Z,12.30
2017-10-07T10:15:55.951Z,12.04
2017-10-07T10:21:38.611Z,12.17
2017-10-07T10:27:21.399Z,12.15
2017-10-07T10:33:10.880Z,12.00
2017-10-07T10:38:54.206Z,12.05
2017-10-07T10:44:39.295Z,11.98
2017-10-07T10:50:22.031Z,12.02
2017-10-07T10:56:08.679Z,12.25
2017-10-07T11:01:55.287Z,11.88
2017-10-07T11:07:39.415Z,11.68
2017-10-07T11:13:24.024Z,11.43
2017-10-07T11:19:08.335Z,11.53
2017-10-07T11:24:54.825Z,11.66
2017-10-07T11:30:38.567Z,11.36
2017-10-07T11:36:25.463Z,11.36
2017-10-07T11:42:08.080Z,10.92
2017-10-07T11:47:52.975Z,10.96
2017-10-07T11:53:41.902Z,10.87
2017-10-07T11:59:25.427Z,10.79
2017-10-07T12:05:08.587Z,10.81
2017-10-07T12:10:51.575Z,10.69
2017-10-07T12:16:38.143Z,10.79
2017-10-07T12:22:25.015Z,10.74
2017-10-07T12:28:07.742Z,10.56
2017-10-07T12:33:56.969Z,10.65
2017-10-07T12:39:37.498Z,10.70
2017-10-07T12:45:24.758Z,10.70
2017-10-07T12:51:08.312Z,11.05
2017-10-07T12:56:52.614Z,10.75
2017-10-07T13:02:41.213Z,10.70
2017-10-07T13:08:26.470Z,10.82
2017-10-07T13:14:11.531Z,10.87
2017-10-07T13:19:58.828Z,10.90
2017-10-07T13:25:38.731Z,10.90
2017-10-07T13:31:26.167Z,10.93
2017-10-07T13:37:12.490Z,11.00
2017-10-07T13:42:55.595Z,11.05
2017-10-07T13:48:38.608Z,10.99
2017-10-07T13:54:25.542Z,11.04
2017-10-07T14:00:11.222Z,11.05
2017-10-07T14:05:53.818Z,11.06
2017-10-07T14:11:40.219Z,11.08
2017-10-07T14:17:22.523Z,11.17
2017-10-07T14:23:11.833Z,11.28
2017-10-07T14:28:54.878Z,11.27
2017-10-07T14:34:37.667Z,11.37
2017-10-07T14:40:26.901Z,11.40
2017-10-07T14:46:14.405Z,11.28
2017-10-07T14:51:54.677Z,11.25
2017-10-07T14:57:40.080Z,11.33
2017-10-07T15:03:22.960Z,11.21
2017-10-07T15:09:12.337Z,11.35
2017-10-07T15:14:56.374Z,11.34
2017-10-07T15:20:38.943Z,11.43
2017-10-07T15:26:28.002Z,11.31
2017-10-07T15:32:10.918Z,11.32
2017-10-07T15:37:54.426Z,11.35
2017-10-07T15:43:37.203Z,11.26
2017-10-07T15:49:23.970Z,11.21
2017-10-07T15:55:11.118Z,11.35
2017-10-07T16:00:53.991Z,11.44
2017-10-07T16:06:37.154Z,11.46
2017-10-07T16:12:21.604Z,11.56
2017-10-07T16:18:08.511Z,11.48
2017-10-07T16:23:55.983Z,11.57
2017-10-07T16:29:42.798Z,11.71
2017-10-07T16:35:25.027Z,11.69
2017-10-07T16:41:09.239Z,11.69
2017-10-07T16:46:58.793Z,11.64
2017-10-07T16:52:38.835Z,11.69
2017-10-07T16:58:25.630Z,11.78
2017-10-07T17:04:08.343Z,11.68
2017-10-07T17:09:55.022Z,11.75
2017-10-07T17:15:39.418Z,11.83
2017-10-07T17:21:24.291Z,11.77
2017-10-07T17:27:11.239Z,11.80
2017-10-07T17:32:53.915Z,11.89
2017-10-07T17:38:38.661Z,11.80
2017-10-07T17:44:25.299Z,11.91
2017-10-07T17:50:07.934Z,11.89
2017-10-07T17:55:57.341Z,11.90
2017-10-07T18:01:40.663Z,11.93
2017-10-07T18:07:23.618Z,11.89
2017-10-07T18:13:08.235Z,11.90
2017-10-07T18:18:57.544Z,11.94
2017-10-07T18:24:40.796Z,12.05
2017-10-07T18:30:24.050Z,12.03
2017-10-07T18:36:13.356Z,12.11
2017-10-07T18:41:56.567Z,12.12
2017-10-07T18:47:39.646Z,12.19
2017-10-07T18:53:25.418Z,12.19
2017-10-07T18:59:12.272Z,12.19
2017-10-07T19:04:55.748Z,12.35
2017-10-07T19:10:40.611Z,12.27
2017-10-07T19:16:25.595Z,12.31
2017-10-07T19:22:10.414Z,12.48
2017-10-07T19:27:59.309Z,12.52
2017-10-07T19:33:39.932Z,12.57
2017-10-07T19:39:27.335Z,12.45
2017-10-07T19:45:10.058Z,12.55
2017-10-07T19:50:56.662Z,12.48
2017-10-07T19:56:39.592Z,12.46
2017-10-07T20:02:24.391Z,12.70
2017-10-07T20:08:13.589Z,12.58
2017-10-07T20:14:02.489Z,12.63
2017-10-07T20:19:39.291Z,12.55
2017-10-07T20:25:22.327Z,12.76
2017-10-07T20:31:08.886Z,12.73
2017-10-07T20:36:55.295Z,12.68
2017-10-07T20:42:38.066Z,12.53
2017-10-07T20:48:25.154Z,12.82
2017-10-07T20:54:14.094Z,12.76
2017-10-07T20:59:57.462Z,12.80
2017-10-07T21:05:40.307Z,12.75
2017-10-07T21:11:23.067Z,12.64
2017-10-07T21:17:07.755Z,12.61
2017-10-07T21:22:56.624Z,12.76
2017-10-07T21:28:40.183Z,12.79
2017-10-07T21:34:23.318Z,12.87
2017-10-07T21:40:07.870Z,13.09
2017-10-07T21:45:54.851Z,13.25
2017-10-07T21:51:38.787Z,12.97
2017-10-07T21:57:25.488Z,13.05
2017-10-07T22:03:08.598Z,13.14
2017-10-07T22:08:55.439Z,13.15
2017-10-07T22:14:38.196Z,13.13
2017-10-07T22:20:25.043Z,13.33
2017-10-07T22:26:14.098Z,13.20
2017-10-07T22:31:57.405Z,13.24
2017-10-07T22:37:40.303Z,13.27
2017-10-07T22:43:25.302Z,13.16
2017-10-07T22:49:08.679Z,13.12
2017-10-07T22:54:55.018Z,12.85
2017-10-07T23:00:38.551Z,13.05
2017-10-07T23:06:25.375Z,12.94
2017-10-07T23:12:08.011Z,13.00
2017-10-07T23:17:54.954Z,12.84
2017-10-07T23:23:41.466Z,12.84
2017-10-07T23:29:24.651Z,12.96
2017-10-07T23:35:09.517Z,13.04
2017-10-07T23:40:58.399Z,12.97
2017-10-07T23:46:38.490Z,13.19
2017-10-07T23:52:23.815Z,13.03
2017-10-07T23:58:10.284Z,12.99
